Time;durP1;ratioP1;P1;durP2;ratioP2;P2;SDS_P1;SDS_P2;PMS_P1;PMS_P2;Temp;Humidity;BMP_temperature;BMP_pressure;BME280_temperature;BME280_humidity;BME280_pressure;Samples;Min_cycle;Max_cycle;Signal;HPM_P1;HPM_P2
2023/10/20 00:00:19;;;;;;;2.90;2.08;;;16.90;68.70;;;;;;5037456;28;20025;-48
2023/10/20 00:02:45;;;;;;;2.42;2.22;;;16.90;68.60;;;;;;5036493;28;20029;-47
2023/10/20 00:05:11;;;;;;;2.65;2.00;;;16.90;68.80;;;;;;5042523;28;20028;-49
2023/10/20 00:07:37;;;;;;;2.97;2.22;;;16.90;68.90;;;;;;5039784;28;20627;-49
2023/10/20 00:10:03;;;;;;;2.10;1.88;;;16.90;68.80;;;;;;5039065;28;20565;-50
2023/10/20 00:12:30;;;;;;;2.80;1.92;;;16.90;68.80;;;;;;5037036;28;20036;-49
2023/10/20 00:14:55;;;;;;;4.15;2.17;;;16.90;68.80;;;;;;5018832;28;20108;-47
2023/10/20 00:17:21;;;;;;;2.10;1.90;;;16.90;68.90;;;;;;5040170;28;20439;-49
2023/10/20 00:19:47;;;;;;;4.68;2.45;;;16.90;68.90;;;;;;5037743;28;20025;-52
2023/10/20 00:22:13;;;;;;;2.88;2.10;;;16.90;69.00;;;;;;5039005;28;20545;-53
2023/10/20 00:24:40;;;;;;;2.30;2.10;;;16.90;68.70;;;;;;5036458;28;20030;-51
2023/10/20 00:27:05;;;;;;;4.15;2.80;;;16.90;69.00;;;;;;5037705;28;20471;-51
2023/10/20 00:29:31;;;;;;;2.35;2.03;;;16.90;68.80;;;;;;5032437;28;20063;-52
2023/10/20 00:31:56;;;;;;;2.30;2.10;;;16.90;68.90;;;;;;5036055;28;20030;-47
2023/10/20 00:34:22;;;;;;;2.42;2.00;;;16.90;68.90;;;;;;5038873;28;20036;-48
2023/10/20 00:36:47;;;;;;;2.03;1.83;;;16.90;68.80;;;;;;5041388;28;20162;-47
2023/10/20 00:39:13;;;;;;;2.28;1.92;;;16.90;68.60;;;;;;5042860;28;20025;-47
2023/10/20 00:41:38;;;;;;;2.78;2.42;;;16.90;68.60;;;;;;5037381;28;20170;-50
2023/10/20 00:44:04;;;;;;;3.20;2.38;;;16.90;68.70;;;;;;5040484;28;20449;-48
2023/10/20 00:46:30;;;;;;;2.67;1.83;;;16.90;68.80;;;;;;5036743;28;20040;-48
2023/10/20 00:48:57;;;;;;;2.25;2.00;;;16.90;68.80;;;;;;5018825;28;20490;-51
2023/10/20 00:51:24;;;;;;;2.95;1.88;;;16.90;68.80;;;;;;5039577;28;20033;-51
2023/10/20 00:53:50;;;;;;;2.28;2.08;;;16.90;68.70;;;;;;5038342;28;20657;-48
2023/10/20 00:56:17;;;;;;;2.22;2.00;;;16.90;68.90;;;;;;5038976;28;20142;-49
2023/10/20 00:58:43;;;;;;;2.10;1.92;;;16.90;68.90;;;;;;5035841;28;20138;-47
2023/10/20 01:01:09;;;;;;;2.97;2.40;;;16.90;68.90;;;;;;5036069;28;20683;-48
2023/10/20 01:03:35;;;;;;;2.35;1.98;;;16.90;68.80;;;;;;5041345;28;20035;-46
2023/10/20 01:06:03;;;;;;;2.20;1.83;;;16.90;68.80;;;;;;5040015;28;20453;-49
2023/10/20 01:08:30;;;;;;;2.78;2.58;;;16.90;68.80;;;;;;5039046;28;20064;-46
2023/10/20 01:10:56;;;;;;;2.83;2.30;;;16.90;68.70;;;;;;5036722;28;20060;-49
2023/10/20 01:13:25;;;;;;;2.92;2.40;;;16.90;68.80;;;;;;5039716;28;20076;-46
2023/10/20 01:15:50;;;;;;;2.95;2.30;;;16.90;68.80;;;;;;5037076;28;20112;-49
2023/10/20 01:18:17;;;;;;;3.10;2.30;;;16.90;68.80;;;;;;5038683;28;20147;-51
2023/10/20 01:20:42;;;;;;;2.70;1.92;;;16.90;68.70;;;;;;5038166;28;20108;-48
2023/10/20 01:23:08;;;;;;;3.03;2.03;;;16.90;68.80;;;;;;5039831;28;20179;-49
2023/10/20 01:25:33;;;;;;;3.80;2.30;;;16.90;68.90;;;;;;5040164;28;20048;-48
2023/10/20 01:27:59;;;;;;;2.85;2.08;;;16.90;68.90;;;;;;5036352;28;20544;-48
2023/10/20 01:30:28;;;;;;;2.40;2.20;;;16.90;69.00;;;;;;5038271;28;20021;-47
2023/10/20 01:32:54;;;;;;;2.50;2.10;;;16.90;68.90;;;;;;5042258;28;20045;-48
2023/10/20 01:35:20;;;;;;;2.15;1.95;;;17.00;68.80;;;;;;5038796;28;20122;-48
2023/10/20 01:37:45;;;;;;;4.38;2.22;;;16.90;68.70;;;;;;5037809;28;20029;-51
2023/10/20 01:40:12;;;;;;;3.50;2.25;;;17.00;68.70;;;;;;5037309;28;20600;-48
2023/10/20 01:42:38;;;;;;;2.25;2.05;;;16.90;69.00;;;;;;5018233;28;20535;-48
2023/10/20 01:45:05;;;;;;;2.40;2.00;;;17.00;68.90;;;;;;5022534;28;20033;-48
2023/10/20 01:47:31;;;;;;;2.25;1.70;;;17.00;68.90;;;;;;5037252;28;20033;-47
2023/10/20 01:49:56;;;;;;;2.05;1.80;;;16.90;68.80;;;;;;5027901;28;20470;-48
2023/10/20 01:52:22;;;;;;;1.63;1.52;;;17.00;68.80;;;;;;5039598;28;20107;-47
2023/10/20 01:54:48;;;;;;;2.60;2.17;;;16.90;68.90;;;;;;5043565;28;21581;-47
2023/10/20 01:57:13;;;;;;;2.45;2.10;;;16.90;68.90;;;;;;5045343;28;20025;-47
2023/10/20 01:59:39;;;;;;;2.42;2.20;;;16.90;68.80;;;;;;5037945;28;20632;-47
2023/10/20 02:02:04;;;;;;;2.65;1.85;;;17.00;69.00;;;;;;5040283;28;20391;-48
2023/10/20 02:04:30;;;;;;;2.35;2.00;;;16.90;68.70;;;;;;5039431;28;20475;-47
2023/10/20 02:06:56;;;;;;;2.13;1.75;;;16.90;68.80;;;;;;5018700;28;20738;-47
2023/10/20 02:09:25;;;;;;;2.58;2.38;;;17.00;68.90;;;;;;5041274;28;20040;-48
2023/10/20 02:11:58;;;;;;;2.47;2.00;;;17.00;68.80;;;;;;5040889;28;20036;-47
2023/10/20 02:14:24;;;;;;;2.10;1.88;;;17.00;68.90;;;;;;5042365;28;20120;-46
2023/10/20 02:16:51;;;;;;;3.25;2.28;;;17.00;68.80;;;;;;5040201;28;20063;-49
2023/10/20 02:19:17;;;;;;;2.08;1.88;;;16.90;68.80;;;;;;5040920;28;20025;-53
2023/10/20 02:21:42;;;;;;;1.85;1.70;;;17.00;69.00;;;;;;5041312;28;20390;-48
2023/10/20 02:24:08;;;;;;;3.00;1.90;;;17.00;68.80;;;;;;5044198;28;20032;-48
2023/10/20 02:26:33;;;;;;;2.60;2.40;;;17.00;68.70;;;;;;5037277;28;21448;-49
2023/10/20 02:28:59;;;;;;;2.00;1.80;;;17.00;68.80;;;;;;5042160;28;20036;-49
2023/10/20 02:31:25;;;;;;;2.17;1.98;;;17.00;68.70;;;;;;5043875;28;20103;-48
2023/10/20 02:33:50;;;;;;;3.72;1.48;;;17.00;68.80;;;;;;5041992;28;20033;-48
2023/10/20 02:36:20;;;;;;;2.50;1.90;;;17.00;68.90;;;;;;5046732;28;20036;-47
2023/10/20 02:38:47;;;;;;;2.15;1.95;;;17.00;68.80;;;;;;5037189;28;20036;-48
2023/10/20 02:41:14;;;;;;;2.50;1.90;;;17.00;69.00;;;;;;5042700;28;20033;-50
2023/10/20 02:43:40;;;;;;;2.10;1.90;;;17.00;68.80;;;;;;5038269;28;20033;-49
2023/10/20 02:46:06;;;;;;;2.13;1.92;;;17.00;68.90;;;;;;5040842;28;20817;-50
2023/10/20 02:48:33;;;;;;;1.85;1.70;;;17.00;68.70;;;;;;5037667;28;20549;-48
2023/10/20 02:51:10;;;;;;;2.20;1.80;;;17.00;69.00;;;;;;5039265;28;20043;-46
2023/10/20 02:53:39;;;;;;;2.55;2.35;;;17.00;68.80;;;;;;5040324;28;20175;-47
2023/10/20 02:56:19;;;;;;;2.60;2.03;;;17.00;68.80;;;;;;5042596;28;20037;-47
2023/10/20 02:58:46;;;;;;;2.00;1.70;;;17.00;68.80;;;;;;5020471;28;20116;-50
2023/10/20 03:01:16;;;;;;;2.22;1.98;;;17.00;68.80;;;;;;5042812;28;20544;-47
2023/10/20 03:03:43;;;;;;;2.08;1.88;;;17.00;68.80;;;;;;5044959;28;20120;-50
2023/10/20 03:06:09;;;;;;;2.70;2.20;;;17.00;68.90;;;;;;5023609;28;20045;-48
2023/10/20 03:08:37;;;;;;;2.42;2.05;;;17.00;68.90;;;;;;5042732;28;20056;-47
2023/10/20 03:11:04;;;;;;;3.60;2.10;;;17.00;68.90;;;;;;5038656;28;20042;-46
2023/10/20 03:13:30;;;;;;;2.72;1.90;;;17.00;69.00;;;;;;5040590;28;20033;-50
2023/10/20 03:15:56;;;;;;;2.58;2.08;;;17.00;68.90;;;;;;5040106;28;20037;-52
2023/10/20 03:18:23;;;;;;;2.47;2.05;;;17.00;68.80;;;;;;5041935;28;20726;-46
2023/10/20 03:20:51;;;;;;;2.20;2.00;;;17.00;68.80;;;;;;5038712;28;20103;-49
2023/10/20 03:23:21;;;;;;;1.98;1.80;;;17.00;68.80;;;;;;5037220;28;20769;-48
2023/10/20 03:25:46;;;;;;;2.40;2.20;;;17.00;68.80;;;;;;5039559;28;20051;-47
2023/10/20 03:28:12;;;;;;;2.05;1.85;;;17.00;68.90;;;;;;5039685;28;20140;-48
2023/10/20 03:30:42;;;;;;;2.10;1.90;;;17.00;68.80;;;;;;5042542;28;20455;-46
2023/10/20 03:33:12;;;;;;;2.25;2.05;;;17.00;68.80;;;;;;5041615;28;20037;-46
2023/10/20 03:35:38;;;;;;;2.25;1.90;;;17.00;69.60;;;;;;5041764;28;20033;-46
2023/10/20 03:38:04;;;;;;;1.95;1.75;;;17.00;68.80;;;;;;5040216;28;20239;-47
2023/10/20 03:40:30;;;;;;;2.90;2.30;;;17.00;68.80;;;;;;5040595;28;20025;-47
2023/10/20 03:42:58;;;;;;;3.03;1.90;;;17.00;68.90;;;;;;5041209;28;20089;-50
2023/10/20 03:45:24;;;;;;;2.30;2.05;;;17.00;68.90;;;;;;5042835;28;20429;-46
2023/10/20 03:47:50;;;;;;;2.08;1.88;;;17.00;68.80;;;;;;5038043;28;20033;-46
2023/10/20 03:50:16;;;;;;;2.60;2.28;;;17.00;68.90;;;;;;5040514;28;20105;-47
2023/10/20 03:52:45;;;;;;;4.65;1.95;;;17.00;68.80;;;;;;5040928;28;20108;-47
2023/10/20 03:55:13;;;;;;;1.90;1.80;;;17.00;68.90;;;;;;5042550;28;20135;-49
2023/10/20 03:57:43;;;;;;;2.67;2.47;;;17.00;68.80;;;;;;5040148;28;20577;-48
2023/10/20 04:00:21;;;;;;;2.97;1.77;;;17.00;68.80;;;;;;5043216;28;20172;-50
2023/10/20 04:02:47;;;;;;;2.22;2.03;;;17.00;68.90;;;;;;5040562;28;20033;-48
2023/10/20 04:05:14;;;;;;;2.85;1.90;;;17.00;68.90;;;;;;5040880;28;20036;-47
2023/10/20 04:07:41;;;;;;;2.08;1.88;;;17.00;68.90;;;;;;5039375;28;20548;-47
2023/10/20 04:10:07;;;;;;;2.85;2.05;;;17.00;68.90;;;;;;5039252;28;20037;-48
2023/10/20 04:12:33;;;;;;;2.50;2.28;;;17.00;69.00;;;;;;5038164;28;20060;-47
2023/10/20 04:14:59;;;;;;;3.58;2.22;;;17.00;68.80;;;;;;5038464;28;20506;-47
2023/10/20 04:17:24;;;;;;;2.33;2.13;;;17.00;68.90;;;;;;5039949;28;20029;-47
2023/10/20 04:19:50;;;;;;;2.38;2.17;;;17.00;68.90;;;;;;5036163;28;20033;-47
2023/10/20 04:22:16;;;;;;;2.95;2.05;;;17.00;68.80;;;;;;5039184;28;20501;-52
2023/10/20 04:24:44;;;;;;;2.50;2.30;;;17.00;68.80;;;;;;5039511;28;20029;-46
2023/10/20 04:27:21;;;;;;;2.50;2.28;;;17.00;68.80;;;;;;5034500;28;20113;-47
2023/10/20 04:41:51;;;;;;;2.53;2.33;;;17.00;68.80;;;;;;5037205;28;20029;-49
2023/10/20 04:43:39;;;;;;;2.60;2.10;;;17.00;69.00;;;;;;5038846;28;20087;-48
2023/10/20 04:51:38;;;;;;;3.10;2.40;;;17.00;69.00;;;;;;5038673;28;19915;-48
2023/10/20 04:54:09;;;;;;;2.50;2.30;;;17.00;68.80;;;;;;5035835;28;20033;-50
2023/10/20 04:56:39;;;;;;;2.92;2.40;;;17.00;68.90;;;;;;5018595;28;20041;-49
2023/10/20 04:59:05;;;;;;;2.58;2.38;;;17.00;68.90;;;;;;5037282;28;20033;-51
2023/10/20 05:01:45;;;;;;;2.70;2.50;;;17.00;68.90;;;;;;5038399;28;20087;-47
2023/10/20 05:04:15;;;;;;;2.53;2.33;;;17.00;68.80;;;;;;5037145;28;20068;-48
2023/10/20 05:06:44;;;;;;;3.67;3.20;;;17.00;68.90;;;;;;5036914;28;20025;-49
2023/10/20 05:09:14;;;;;;;3.42;2.65;;;17.00;68.90;;;;;;5038275;28;20041;-48
2023/10/20 05:11:41;;;;;;;2.65;2.45;;;17.00;68.90;;;;;;5020696;28;20025;-48
2023/10/20 05:14:07;;;;;;;3.45;3.15;;;17.00;68.90;;;;;;5038861;28;20116;-47
2023/10/20 05:16:34;;;;;;;3.75;3.35;;;17.00;69.00;;;;;;5040069;28;20136;-47
2023/10/20 05:19:03;;;;;;;4.32;3.50;;;17.00;68.90;;;;;;5039661;28;20208;-47
2023/10/20 05:21:29;;;;;;;5.75;4.20;;;17.00;68.90;;;;;;5041510;28;20037;-46
2023/10/20 05:23:54;;;;;;;5.32;4.10;;;17.00;68.80;;;;;;5038221;28;20039;-46
2023/10/20 05:26:20;;;;;;;6.43;4.88;;;17.00;68.90;;;;;;5036435;28;20042;-50
2023/10/20 05:28:46;;;;;;;8.50;4.38;;;17.00;68.90;;;;;;5041089;28;20033;-48
2023/10/20 05:31:11;;;;;;;6.22;4.80;;;17.00;69.00;;;;;;5040513;28;20033;-47
2023/10/20 05:33:37;;;;;;;7.55;4.68;;;17.00;68.90;;;;;;5042682;28;20044;-48
2023/10/20 05:36:03;;;;;;;6.82;4.95;;;17.00;69.00;;;;;;5038489;28;20039;-47
2023/10/20 05:38:29;;;;;;;8.25;5.05;;;17.00;69.10;;;;;;5039888;28;20717;-46
2023/10/20 05:40:59;;;;;;;7.57;5.03;;;17.00;69.00;;;;;;5038636;28;20055;-46
2023/10/20 05:43:25;;;;;;;6.53;5.10;;;17.00;68.90;;;;;;5020494;28;20025;-48
2023/10/20 05:45:51;;;;;;;7.50;4.88;;;17.00;69.10;;;;;;5039226;28;20033;-48
2023/10/20 05:48:17;;;;;;;7.43;5.35;;;17.00;69.00;;;;;;5041083;28;20082;-48
2023/10/20 05:50:42;;;;;;;6.68;5.35;;;17.00;69.20;;;;;;5040519;28;20036;-48
2023/10/20 05:53:08;;;;;;;9.20;5.88;;;17.00;69.10;;;;;;5039549;28;20057;-49
2023/10/20 05:55:34;;;;;;;9.48;5.88;;;17.00;69.10;;;;;;5040409;28;20033;-48
2023/10/20 05:58:00;;;;;;;9.07;5.13;;;17.00;69.10;;;;;;5041657;28;20295;-48
2023/10/20 06:00:25;;;;;;;7.85;5.85;;;17.00;69.20;;;;;;5038732;28;20041;-48
2023/10/20 06:02:51;;;;;;;9.70;6.35;;;17.00;69.00;;;;;;5041138;28;20029;-48
2023/10/20 06:05:17;;;;;;;7.20;5.68;;;17.00;69.10;;;;;;5041759;28;20021;-49
2023/10/20 06:07:43;;;;;;;10.48;6.00;;;17.00;69.00;;;;;;5042327;28;20029;-47
2023/10/20 06:10:11;;;;;;;8.52;6.88;;;17.00;69.10;;;;;;5037631;28;20136;-47
2023/10/20 06:12:38;;;;;;;9.27;7.15;;;17.00;69.00;;;;;;5042209;28;20029;-47
2023/10/20 06:15:06;;;;;;;10.95;7.82;;;16.90;69.10;;;;;;5040533;28;20029;-47
2023/10/20 06:17:32;;;;;;;13.77;9.02;;;16.80;69.20;;;;;;5041170;28;20040;-48
2023/10/20 06:19:57;;;;;;;13.48;9.02;;;16.80;69.10;;;;;;5040968;28;20489;-48
2023/10/20 06:22:23;;;;;;;11.50;8.82;;;16.70;69.20;;;;;;5041706;28;20033;-55
2023/10/20 06:24:48;;;;;;;10.27;7.57;;;16.80;69.60;;;;;;5042547;28;20036;-52
2023/10/20 06:27:14;;;;;;;12.88;7.95;;;16.90;69.50;;;;;;5020505;28;20085;-56
2023/10/20 06:29:48;;;;;;;9.02;7.47;;;17.00;69.10;;;;;;5040933;28;20033;-54
2023/10/20 06:35:00;;;;;;;8.95;7.03;;;17.00;68.70;;;;;;5040643;28;20031;-55
2023/10/20 06:39:56;;;;;;;10.05;6.95;;;17.10;68.70;;;;;;5040588;28;20106;-53
2023/10/20 06:42:22;;;;;;;7.28;6.22;;;17.10;68.70;;;;;;5038883;28;20041;-56
2023/10/20 06:44:48;;;;;;;10.07;6.68;;;17.10;68.60;;;;;;5041869;28;20087;-55
2023/10/20 06:47:14;;;;;;;8.20;5.93;;;17.10;68.70;;;;;;5041182;28;20123;-55
2023/10/20 06:49:39;;;;;;;9.50;6.00;;;17.10;68.80;;;;;;5042945;28;20287;-55
2023/10/20 06:52:04;;;;;;;7.53;5.85;;;17.10;68.80;;;;;;5038522;28;20025;-56
2023/10/20 06:54:30;;;;;;;10.40;6.63;;;17.10;68.70;;;;;;5038805;28;20486;-54
2023/10/20 06:56:56;;;;;;;7.28;5.90;;;17.10;68.80;;;;;;5042914;28;20029;-52
2023/10/20 06:59:21;;;;;;;8.07;5.85;;;17.10;68.60;;;;;;5039848;28;20032;-56
2023/10/20 07:01:47;;;;;;;8.13;6.60;;;17.10;68.60;;;;;;5038742;28;20394;-57
2023/10/20 07:04:13;;;;;;;7.80;6.03;;;17.10;68.60;;;;;;5042113;28;20040;-54
2023/10/20 07:06:40;;;;;;;7.60;5.95;;;17.20;68.70;;;;;;5041458;28;20036;-54
2023/10/20 07:09:12;;;;;;;8.07;5.82;;;17.10;68.60;;;;;;5038708;28;20083;-53
2023/10/20 07:11:42;;;;;;;7.63;5.78;;;17.20;68.70;;;;;;5036097;28;20037;-55
2023/10/20 07:14:09;;;;;;;7.40;5.30;;;17.10;68.60;;;;;;5039346;28;20034;-54
2023/10/20 07:16:35;;;;;;;8.98;5.93;;;17.20;68.70;;;;;;5034035;28;20033;-54
2023/10/20 07:19:01;;;;;;;9.20;6.05;;;17.20;68.70;;;;;;5038887;28;20044;-55
2023/10/20 07:21:27;;;;;;;7.72;5.47;;;17.20;68.70;;;;;;5033549;28;20122;-56
2023/10/20 07:23:52;;;;;;;8.45;5.93;;;17.20;68.80;;;;;;5036876;28;20591;-56
2023/10/20 07:26:18;;;;;;;8.95;6.00;;;17.20;68.60;;;;;;5037454;28;20687;-55
2023/10/20 07:28:44;;;;;;;7.72;5.75;;;17.20;68.70;;;;;;5039301;28;20063;-55
2023/10/20 07:31:14;;;;;;;9.95;5.95;;;17.20;68.80;;;;;;5039952;28;20052;-53
2023/10/20 07:33:40;;;;;;;8.07;5.68;;;17.20;68.80;;;;;;5040019;28;20032;-55
2023/10/20 07:36:06;;;;;;;8.40;5.53;;;17.20;68.70;;;;;;5039337;28;20033;-56
2023/10/20 07:38:32;;;;;;;8.90;5.90;;;17.20;68.80;;;;;;5038140;28;20091;-52
2023/10/20 07:41:07;;;;;;;7.97;5.93;;;17.20;68.90;;;;;;5038973;28;20149;-55
2023/10/20 07:43:33;;;;;;;8.73;6.00;;;17.20;68.70;;;;;;5035915;28;20049;-54
2023/10/20 07:45:59;;;;;;;6.90;5.45;;;17.20;68.80;;;;;;5039181;28;20036;-56
2023/10/20 07:48:26;;;;;;;9.05;5.82;;;17.20;68.90;;;;;;5034289;28;20045;-55
2023/10/20 07:50:52;;;;;;;8.60;6.72;;;17.20;68.80;;;;;;5018944;28;20040;-57
2023/10/20 07:53:18;;;;;;;8.98;6.45;;;17.20;68.90;;;;;;5032818;28;20033;-61
2023/10/20 07:55:44;;;;;;;8.10;5.68;;;17.20;69.50;;;;;;5038458;28;20039;-53
2023/10/20 07:58:09;;;;;;;10.20;6.32;;;17.20;69.00;;;;;;5042991;28;20025;-55
2023/10/20 08:00:36;;;;;;;9.13;6.50;;;17.20;68.70;;;;;;5039173;28;20035;-56
2023/10/20 08:03:02;;;;;;;8.65;6.25;;;17.20;68.80;;;;;;5008662;28;20049;-53
2023/10/20 08:05:28;;;;;;;8.50;6.57;;;17.20;68.80;;;;;;5017284;28;20498;-54
2023/10/20 08:07:55;;;;;;;7.75;6.00;;;17.20;68.80;;;;;;5019760;28;20048;-55
2023/10/20 08:10:21;;;;;;;8.57;6.10;;;17.30;69.00;;;;;;5038169;28;20039;-54
2023/10/20 08:12:47;;;;;;;8.45;5.70;;;17.20;68.80;;;;;;5042655;28;20589;-53
2023/10/20 08:15:12;;;;;;;9.40;5.82;;;17.20;68.90;;;;;;5038788;28;20113;-54
2023/10/20 08:17:38;;;;;;;9.13;6.25;;;17.20;69.00;;;;;;5036917;28;20032;-54
2023/10/20 08:20:09;;;;;;;13.43;7.25;;;17.20;68.80;;;;;;5014137;28;20025;-54
2023/10/20 08:22:35;;;;;;;8.10;5.70;;;17.30;69.00;;;;;;5040315;28;20635;-57
2023/10/20 08:25:00;;;;;;;12.13;7.38;;;17.20;68.90;;;;;;5014496;28;20101;-57
2023/10/20 08:27:26;;;;;;;8.32;6.40;;;17.20;68.80;;;;;;5038818;28;20037;-55
2023/10/20 08:29:55;;;;;;;10.05;6.63;;;17.20;68.70;;;;;;5034958;28;20065;-55
2023/10/20 08:32:20;;;;;;;8.82;6.28;;;17.30;68.80;;;;;;5039960;28;20052;-56
2023/10/20 08:34:46;;;;;;;7.38;5.95;;;17.20;68.70;;;;;;5041659;28;20029;-54
2023/10/20 08:37:12;;;;;;;8.32;6.07;;;17.30;68.90;;;;;;5042943;28;20478;-54
2023/10/20 08:39:37;;;;;;;8.35;5.78;;;17.20;68.70;;;;;;5034828;28;20037;-57
2023/10/20 08:42:19;;;;;;;8.68;5.45;;;17.20;68.70;;;;;;5039478;28;20086;-54
2023/10/20 08:44:46;;;;;;;7.90;6.28;;;17.20;68.70;;;;;;5030678;28;20041;-55
2023/10/20 08:47:15;;;;;;;7.85;6.40;;;17.30;68.80;;;;;;5047322;28;20029;-55
2023/10/20 08:49:42;;;;;;;8.57;6.13;;;17.30;68.80;;;;;;5037853;28;20347;-52
2023/10/20 08:52:10;;;;;;;8.65;6.00;;;17.20;68.70;;;;;;5042640;28;20140;-55
2023/10/20 08:54:36;;;;;;;8.25;5.93;;;17.30;68.80;;;;;;5043180;28;20682;-52
2023/10/20 08:57:02;;;;;;;7.63;5.45;;;17.30;68.70;;;;;;5044954;28;20021;-54
2023/10/20 08:59:28;;;;;;;9.50;5.65;;;17.30;68.70;;;;;;5038156;28;20443;-54
2023/10/20 09:01:53;;;;;;;8.27;5.88;;;17.30;68.70;;;;;;5074311;23;20051;-66
2023/10/20 09:04:26;;;;;;;6.85;6.15;;;17.30;68.60;;;;;;5063464;28;20047;-65
2023/10/20 09:06:53;;;;;;;8.77;5.95;;;17.30;68.50;;;;;;5063002;28;20025;-66
2023/10/20 09:09:19;;;;;;;9.40;7.10;;;17.30;68.60;;;;;;5071709;28;20678;-65
2023/10/20 09:11:46;;;;;;;7.65;6.05;;;17.30;68.60;;;;;;5067329;28;20033;-64
2023/10/20 09:14:14;;;;;;;7.07;5.68;;;17.30;68.60;;;;;;5073398;28;20081;-65
2023/10/20 09:16:39;;;;;;;8.98;6.20;;;17.30;68.60;;;;;;5061473;28;20037;-65
2023/10/20 09:19:06;;;;;;;9.43;6.20;;;17.30;68.50;;;;;;5057180;28;20028;-63
2023/10/20 09:21:32;;;;;;;6.80;6.13;;;17.30;68.70;;;;;;5067901;28;20772;-65
2023/10/20 09:23:59;;;;;;;6.60;5.60;;;17.30;68.60;;;;;;5055440;28;20028;-65
2023/10/20 09:26:27;;;;;;;7.22;5.75;;;17.30;68.60;;;;;;5055655;28;20406;-66
2023/10/20 09:28:54;;;;;;;8.52;7.03;;;17.30;68.50;;;;;;5067180;28;20055;-66
2023/10/20 09:31:22;;;;;;;7.25;5.97;;;17.30;68.70;;;;;;5060122;28;20301;-65
2023/10/20 09:33:48;;;;;;;10.23;6.45;;;17.30;68.50;;;;;;5064369;28;20413;-65
2023/10/20 09:36:15;;;;;;;6.93;6.05;;;17.30;68.50;;;;;;5067799;28;20029;-65
2023/10/20 09:38:49;;;;;;;6.88;5.80;;;17.30;68.60;;;;;;5063063;28;20029;-67
2023/10/20 09:41:17;;;;;;;8.50;6.50;;;17.30;68.50;;;;;;5068107;28;20039;-67
2023/10/20 09:43:48;;;;;;;8.20;6.38;;;17.30;68.50;;;;;;5057625;28;20033;-67
2023/10/20 09:46:19;;;;;;;8.13;5.55;;;17.30;68.50;;;;;;5071975;28;20028;-67
2023/10/20 09:48:47;;;;;;;7.97;6.35;;;17.30;68.50;;;;;;5057224;28;20056;-66
2023/10/20 09:51:15;;;;;;;8.77;6.32;;;17.30;68.60;;;;;;5064313;28;20060;-64
2023/10/20 09:53:42;;;;;;;8.68;6.25;;;17.30;68.50;;;;;;5056562;28;20044;-67
2023/10/20 09:56:09;;;;;;;7.88;5.85;;;17.30;68.60;;;;;;5066868;28;20398;-68
2023/10/20 09:58:36;;;;;;;7.65;6.05;;;17.30;68.70;;;;;;5067213;28;20530;-67
2023/10/20 10:01:03;;;;;;;7.10;6.00;;;17.30;68.60;;;;;;5061876;28;20078;-61
2023/10/20 10:03:40;;;;;;;7.03;5.88;;;17.30;68.50;;;;;;5060681;28;20041;-67
2023/10/20 10:06:10;;;;;;;7.65;6.00;;;17.30;68.50;;;;;;5066161;28;20041;-67
2023/10/20 10:08:40;;;;;;;7.65;6.30;;;17.30;68.60;;;;;;5055230;28;20075;-68
2023/10/20 10:11:29;;;;;;;7.32;6.60;;;17.30;68.50;;;;;;5064086;28;20036;-67
2023/10/20 10:13:59;;;;;;;6.45;5.20;;;17.40;68.40;;;;;;5066574;28;20041;-66
2023/10/20 10:16:25;;;;;;;7.75;5.80;;;17.40;68.50;;;;;;5063803;28;20028;-67
2023/10/20 10:18:54;;;;;;;8.35;6.20;;;17.40;68.50;;;;;;5061301;28;20021;-66
2023/10/20 10:21:24;;;;;;;8.88;5.35;;;17.30;68.60;;;;;;5064838;28;20033;-66
2023/10/20 10:24:12;;;;;;;6.63;5.93;;;17.30;68.50;;;;;;5062176;28;20465;-66
2023/10/20 10:26:57;;;;;;;8.10;5.70;;;17.40;68.50;;;;;;5061666;28;20243;-66
2023/10/20 10:29:49;;;;;;;7.25;5.57;;;17.30;68.50;;;;;;5057351;28;20040;-67
2023/10/20 10:32:17;;;;;;;8.00;6.05;;;17.30;68.50;;;;;;5067751;28;20031;-67
2023/10/20 10:34:44;;;;;;;9.48;6.55;;;17.30;68.50;;;;;;5057981;28;20029;-66
2023/10/20 10:37:10;;;;;;;6.95;6.03;;;17.30;68.40;;;;;;5065630;28;20048;-62
2023/10/20 10:39:36;;;;;;;6.40;5.13;;;17.30;68.40;;;;;;5067212;28;20693;-67
2023/10/20 10:42:04;;;;;;;6.88;6.07;;;17.40;68.50;;;;;;5066592;28;20140;-67
2023/10/20 10:44:36;;;;;;;6.95;6.25;;;17.30;68.50;;;;;;5057356;28;20025;-66
2023/10/20 10:47:04;;;;;;;7.15;5.78;;;17.30;68.40;;;;;;5068963;28;20036;-66
2023/10/20 10:49:33;;;;;;;6.63;5.72;;;17.30;68.50;;;;;;5056729;28;20043;-67
2023/10/20 10:52:07;;;;;;;6.72;5.95;;;17.40;68.50;;;;;;5063419;28;20406;-66
2023/10/20 10:54:33;;;;;;;7.43;5.82;;;17.30;68.40;;;;;;5068046;28;20040;-67
2023/10/20 10:57:01;;;;;;;8.15;5.78;;;17.40;68.40;;;;;;5069851;28;20433;-66
2023/10/20 10:59:27;;;;;;;7.10;5.95;;;17.40;68.40;;;;;;5067879;28;20062;-66
2023/10/20 11:01:53;;;;;;;7.80;5.65;;;17.40;68.30;;;;;;5061523;28;20058;-67
2023/10/20 11:04:19;;;;;;;5.90;5.07;;;17.30;68.30;;;;;;5069436;28;20043;-66
2023/10/20 11:06:44;;;;;;;7.00;5.70;;;17.30;68.30;;;;;;5060620;28;20036;-67
2023/10/20 11:09:11;;;;;;;5.75;5.05;;;17.40;68.40;;;;;;5068352;28;20127;-67
2023/10/20 11:11:47;;;;;;;6.85;5.78;;;17.30;68.30;;;;;;5065440;28;20032;-65
2023/10/20 11:14:17;;;;;;;5.70;5.00;;;17.40;68.40;;;;;;5067618;28;20048;-65
2023/10/20 11:16:42;;;;;;;7.43;5.60;;;17.40;68.40;;;;;;5058925;28;20406;-65
2023/10/20 11:19:13;;;;;;;6.03;5.35;;;17.40;68.40;;;;;;5066898;28;20036;-64
2023/10/20 11:21:48;;;;;;;6.88;5.80;;;17.30;68.30;;;;;;5062956;28;20046;-66
2023/10/20 11:24:35;;;;;;;6.15;5.55;;;17.30;68.30;;;;;;5061346;28;20028;-67
2023/10/20 11:27:02;;;;;;;6.88;5.50;;;17.40;68.40;;;;;;5065788;28;20490;-65
2023/10/20 11:29:32;;;;;;;6.15;5.25;;;17.40;68.30;;;;;;5065625;28;20324;-67
2023/10/20 11:32:00;;;;;;;5.82;5.30;;;17.40;68.40;;;;;;5066495;28;20371;-67
2023/10/20 11:34:27;;;;;;;5.85;5.18;;;17.40;68.30;;;;;;5063657;28;20148;-67
2023/10/20 11:36:53;;;;;;;6.13;5.20;;;17.40;68.30;;;;;;5057214;28;20127;-66
2023/10/20 11:39:24;;;;;;;5.32;4.82;;;17.40;68.30;;;;;;5072675;28;20532;-66
2023/10/20 11:41:50;;;;;;;6.05;5.15;;;17.40;68.20;;;;;;5067158;28;20044;-68
2023/10/20 11:44:16;;;;;;;5.90;5.38;;;17.40;68.30;;;;;;5058659;28;20024;-66
2023/10/20 11:46:43;;;;;;;6.47;5.38;;;17.40;68.30;;;;;;5067462;28;20461;-68
2023/10/20 11:49:10;;;;;;;6.88;5.18;;;17.40;68.30;;;;;;5069510;28;20102;-67
2023/10/20 11:51:37;;;;;;;7.47;5.13;;;17.40;68.40;;;;;;5064536;28;20130;-63
2023/10/20 11:54:03;;;;;;;8.35;4.75;;;17.40;68.40;;;;;;5061149;28;20534;-66
2023/10/20 11:56:29;;;;;;;7.10;6.00;;;17.40;68.40;;;;;;5072640;28;20032;-63
2023/10/20 11:58:54;;;;;;;6.13;5.45;;;17.40;68.40;;;;;;5064278;28;20036;-67
2023/10/20 12:01:20;;;;;;;5.20;4.70;;;17.40;68.30;;;;;;5072558;28;20262;-67
2023/10/20 12:03:45;;;;;;;5.25;4.75;;;17.40;68.40;;;;;;5066682;28;20043;-67
2023/10/20 12:06:11;;;;;;;5.30;4.65;;;17.40;68.40;;;;;;5061021;28;20039;-67
2023/10/20 12:08:37;;;;;;;5.88;5.07;;;17.40;68.50;;;;;;5066810;28;20033;-67
2023/10/20 12:11:02;;;;;;;6.20;5.47;;;17.40;68.40;;;;;;5057087;28;20495;-64
2023/10/20 12:13:28;;;;;;;5.30;4.78;;;17.40;68.50;;;;;;5073584;28;20598;-66
2023/10/20 12:15:53;;;;;;;5.18;4.68;;;17.40;68.50;;;;;;5048374;28;20486;-68
2023/10/20 12:18:19;;;;;;;4.82;4.35;;;17.40;68.50;;;;;;5073002;28;20024;-67
2023/10/20 12:20:47;;;;;;;6.72;5.38;;;17.40;68.50;;;;;;5055740;28;20043;-67
2023/10/20 12:23:13;;;;;;;5.60;4.40;;;17.40;68.50;;;;;;5073344;28;20460;-67
2023/10/20 12:25:38;;;;;;;5.00;4.43;;;17.40;68.50;;;;;;5053636;28;20032;-62
2023/10/20 12:28:05;;;;;;;5.47;4.57;;;17.40;68.50;;;;;;5063781;28;20486;-66
2023/10/20 12:30:32;;;;;;;5.20;4.70;;;17.40;68.50;;;;;;5058120;28;20107;-67
2023/10/20 12:32:58;;;;;;;5.05;4.55;;;17.40;68.50;;;;;;5061043;28;20020;-67
2023/10/20 12:35:23;;;;;;;5.95;4.85;;;17.40;68.60;;;;;;5075923;28;20043;-67
2023/10/20 12:37:49;;;;;;;5.40;4.90;;;17.50;68.60;;;;;;5061031;28;20070;-67
2023/10/20 12:40:15;;;;;;;5.60;4.68;;;17.40;68.50;;;;;;5071225;28;20020;-66
2023/10/20 12:42:41;;;;;;;5.65;4.80;;;17.40;68.50;;;;;;5064666;28;20024;-67
2023/10/20 12:45:09;;;;;;;5.50;4.35;;;17.50;68.70;;;;;;5058639;28;20035;-66
2023/10/20 12:47:35;;;;;;;6.50;4.50;;;17.40;68.70;;;;;;5061876;28;20494;-67
2023/10/20 12:50:01;;;;;;;5.18;4.28;;;17.40;68.60;;;;;;5066855;28;20036;-67
2023/10/20 12:52:27;;;;;;;5.10;4.10;;;17.50;68.70;;;;;;5065670;28;20039;-65
2023/10/20 12:54:52;;;;;;;5.13;4.68;;;17.40;68.60;;;;;;5066046;28;20040;-67
2023/10/20 12:57:19;;;;;;;4.75;4.13;;;17.50;68.60;;;;;;5060403;28;20051;-67
2023/10/20 12:59:44;;;;;;;5.75;4.60;;;17.50;68.80;;;;;;5065908;28;20036;-68
2023/10/20 13:02:09;;;;;;;4.47;3.97;;;17.40;68.70;;;;;;5060352;28;21418;-67
2023/10/20 13:04:35;;;;;;;5.85;4.28;;;17.40;68.60;;;;;;5069246;28;20525;-65
2023/10/20 13:07:02;;;;;;;4.80;3.95;;;17.40;68.60;;;;;;5064124;28;20044;-68